createdAt,value
2023-03-21T00:01:01.137Z,101130.41
2023-03-21T00:03:36.767Z,101139.31
2023-03-21T00:06:08.950Z,101130.13
2023-03-21T00:08:47.074Z,101130.34
2023-03-21T00:11:14.461Z,101131.22
2023-03-21T00:13:54.808Z,101121.84
2023-03-21T00:16:33.667Z,101127.38
2023-03-21T00:19:13.062Z,101120.66
2023-03-21T00:22:03.301Z,101129.94
2023-03-21T00:24:38.624Z,101117.06
2023-03-21T00:27:42.641Z,101121.75
2023-03-21T00:30:16.321Z,101121.59
2023-03-21T00:32:55.492Z,101121.50
2023-03-21T00:38:16.324Z,101124.06
2023-03-21T00:40:55.779Z,101126.03
2023-03-21T00:43:30.099Z,101110.03
2023-03-21T00:46:01.654Z,101116.94
2023-03-21T00:48:35.030Z,101114.50
2023-03-21T00:51:29.040Z,101112.38
2023-03-21T00:54:08.534Z,101112.72
2023-03-21T00:56:43.400Z,101104.06
2023-03-21T00:59:15.460Z,101098.19
2023-03-21T01:01:49.988Z,101095.59
2023-03-21T01:04:29.953Z,101100.84
2023-03-21T01:07:02.909Z,101098.19
2023-03-21T01:09:57.128Z,101109.25
2023-03-21T01:12:35.600Z,101095.63
2023-03-21T01:15:09.092Z,101091.25
2023-03-21T01:17:35.877Z,101091.47
2023-03-21T01:20:03.039Z,101084.72
2023-03-21T01:22:29.829Z,101089.69
2023-03-21T01:25:19.241Z,101087.56
2023-03-21T01:27:58.458Z,101088.63
2023-03-21T01:30:28.687Z,101082.19
2023-03-21T01:33:01.042Z,101082.06
2023-03-21T01:35:49.195Z,101095.09
2023-03-21T01:38:20.617Z,101083.81
2023-03-21T01:40:51.119Z,101087.84
2023-03-21T01:43:35.280Z,101090.28
2023-03-21T01:46:07.136Z,101091.09
2023-03-21T01:49:17.033Z,101089.00
2023-03-21T01:52:06.505Z,101086.38
2023-03-21T01:54:58.604Z,101082.50
2023-03-21T01:57:58.190Z,101085.78
2023-03-21T02:00:46.706Z,101088.38
2023-03-21T02:03:41.894Z,101079.44
2023-03-21T02:07:00.582Z,101078.00
2023-03-21T02:09:51.479Z,101069.41
2023-03-21T02:12:50.295Z,101068.31
2023-03-21T02:15:30.924Z,101069.22
2023-03-21T02:22:26.804Z,101058.97
2023-03-21T02:25:31.970Z,101055.34
2023-03-21T02:28:16.017Z,101061.63
2023-03-21T02:30:52.167Z,101055.34
2023-03-21T02:33:43.455Z,101053.13
2023-03-21T02:36:28.918Z,101047.22
2023-03-21T02:39:27.225Z,101048.72
2023-03-21T02:42:06.910Z,101043.94
2023-03-21T02:45:10.512Z,101051.13
2023-03-21T02:51:40.304Z,101046.34
2023-03-21T02:54:38.409Z,101039.34
2023-03-21T02:57:18.521Z,101046.88
2023-03-21T03:00:02.464Z,101036.19
2023-03-21T03:02:42.866Z,101039.84
2023-03-21T03:05:40.647Z,101039.84
2023-03-21T03:08:24.008Z,101051.22
2023-03-21T03:11:21.187Z,101035.84
2023-03-21T03:15:00.212Z,101032.06
2023-03-21T03:17:55.266Z,101036.22
2023-03-21T03:20:44.713Z,101029.28
2023-03-21T03:23:19.386Z,101037.78
2023-03-21T03:26:02.381Z,101023.72
2023-03-21T03:28:41.442Z,101024.53
2023-03-21T03:31:26.190Z,101013.63
2023-03-21T03:34:08.064Z,101023.16
2023-03-21T03:36:43.152Z,101015.34
2023-03-21T03:39:21.233Z,101021.09
2023-03-21T03:42:25.465Z,101019.50
2023-03-21T03:45:01.374Z,101011.13
2023-03-21T03:47:56.050Z,101016.00
2023-03-21T03:50:47.464Z,101009.88
2023-03-21T03:53:39.741Z,101002.69
2023-03-21T03:56:18.674Z,101013.28
2023-03-21T03:58:54.765Z,101013.25
2023-03-21T04:01:35.386Z,101014.63
2023-03-21T04:04:12.886Z,101011.69
2023-03-21T04:06:41.369Z,101017.31
2023-03-21T04:09:19.070Z,101022.03
2023-03-21T04:11:53.649Z,101012.81
2023-03-21T04:14:35.643Z,101016.41
2023-03-21T04:17:11.378Z,101013.47
2023-03-21T04:19:44.059Z,101018.31
2023-03-21T04:22:27.352Z,101015.66
2023-03-21T04:25:00.263Z,101006.41
2023-03-21T04:27:35.031Z,101019.16
2023-03-21T04:31:00.599Z,101003.19
2023-03-21T04:33:44.783Z,101004.72
2023-03-21T04:36:29.504Z,101005.97
2023-03-21T04:39:12.521Z,101001.78
2023-03-21T04:42:02.740Z,101006.81
2023-03-21T04:44:48.917Z,101018.25
2023-03-21T04:47:16.764Z,101015.13
2023-03-21T04:49:49.461Z,101015.06
2023-03-21T04:52:21.344Z,101014.28
2023-03-21T04:55:01.297Z,101004.09
2023-03-21T04:57:33.305Z,101007.06
2023-03-21T05:00:00.365Z,100998.91
2023-03-21T05:02:28.414Z,101009.09
2023-03-21T05:04:59.134Z,101003.69
2023-03-21T05:07:26.479Z,101001.94
2023-03-21T05:09:54.570Z,100996.00
2023-03-21T05:12:22.341Z,101005.00
2023-03-21T05:14:50.837Z,101007.00
2023-03-21T05:17:23.473Z,101007.97
2023-03-21T05:19:52.875Z,101006.53
2023-03-21T05:22:24.276Z,101010.47
2023-03-21T05:24:51.577Z,101011.50
2023-03-21T05:27:45.298Z,101010.50
2023-03-21T05:30:17.828Z,101005.56
2023-03-21T05:32:47.139Z,101007.28
2023-03-21T05:35:17.181Z,101004.59
2023-03-21T05:37:43.996Z,100996.81
2023-03-21T05:40:12.947Z,100995.16
2023-03-21T05:42:43.595Z,100993.44
2023-03-21T05:45:16.738Z,100991.78
2023-03-21T05:47:44.673Z,100992.03
2023-03-21T05:50:15.502Z,100992.09
2023-03-21T05:53:08.701Z,100990.81
2023-03-21T05:55:39.007Z,100983.75
2023-03-21T05:58:10.540Z,100986.72
2023-03-21T06:00:39.796Z,100989.03
2023-03-21T06:03:22.871Z,100989.50
2023-03-21T06:06:08.622Z,100990.47
2023-03-21T06:08:39.916Z,100995.22
2023-03-21T06:11:13.758Z,100993.00
2023-03-21T06:13:45.784Z,100994.50
2023-03-21T06:16:15.328Z,100985.94
2023-03-21T06:18:44.298Z,100989.09
2023-03-21T06:21:20.725Z,100991.53
2023-03-21T06:23:55.360Z,100990.53
2023-03-21T06:26:28.330Z,100986.22
2023-03-21T06:29:04.070Z,100979.53
2023-03-21T06:31:41.241Z,100967.34
2023-03-21T06:34:24.860Z,100973.09
2023-03-21T06:52:15.558Z,100972.75
2023-03-21T07:00:16.158Z,100968.88
2023-03-21T07:03:01.683Z,100977.91
2023-03-21T07:13:05.951Z,100992.25
2023-03-21T07:20:16.733Z,100983.81
2023-03-21T07:23:56.584Z,100981.25
2023-03-21T07:26:50.738Z,100983.81
2023-03-21T07:32:55.641Z,100972.75
2023-03-21T07:35:42.084Z,100984.34
2023-03-21T07:39:03.873Z,100977.19
2023-03-21T07:48:42.472Z,100976.25
2023-03-21T08:06:20.278Z,100968.72
2023-03-21T08:09:31.078Z,100980.16
2023-03-21T08:12:28.098Z,100974.81
2023-03-21T08:18:25.085Z,100980.72
2023-03-21T08:24:21.779Z,100975.09
2023-03-21T08:27:31.238Z,100970.63
2023-03-21T08:30:21.617Z,100978.69
2023-03-21T08:33:45.225Z,100977.72
2023-03-21T08:36:20.484Z,100964.53
2023-03-21T08:39:09.190Z,100964.19
2023-03-21T08:41:55.006Z,100972.28
2023-03-21T08:44:28.420Z,100970.53
2023-03-21T08:47:06.951Z,100964.97
2023-03-21T08:52:44.657Z,100963.94
2023-03-21T08:55:40.685Z,100971.72
2023-03-21T08:58:33.608Z,100967.25
2023-03-21T09:01:30.306Z,100967.38
2023-03-21T09:04:26.724Z,100967.13
2023-03-21T09:10:32.286Z,100960.09
2023-03-21T09:13:27.802Z,100960.34
2023-03-21T09:16:08.522Z,100962.78
2023-03-21T09:19:02.958Z,100956.09
2023-03-21T09:22:01.122Z,100959.53
2023-03-21T09:28:38.549Z,100954.44
2023-03-21T09:31:21.461Z,100960.84
2023-03-21T09:34:01.500Z,100962.47
2023-03-21T09:37:22.914Z,100967.16
2023-03-21T09:40:43.314Z,100963.75
2023-03-21T09:44:48.228Z,100955.91
2023-03-21T09:47:46.691Z,100961.91
2023-03-21T09:51:04.032Z,100958.75
2023-03-21T09:56:55.460Z,100961.13
2023-03-21T09:59:45.229Z,100955.78
2023-03-21T10:02:46.888Z,100954.06
2023-03-21T10:05:47.538Z,100950.81
2023-03-21T10:08:58.095Z,100951.53
2023-03-21T10:12:26.001Z,100946.94
2023-03-21T10:15:25.369Z,100948.47
2023-03-21T10:18:40.210Z,100948.16
2023-03-21T10:25:16.582Z,100937.28
2023-03-21T10:28:02.597Z,100937.13
2023-03-21T10:31:02.241Z,100933.03
2023-03-21T10:39:09.523Z,100927.50
2023-03-21T10:40:51.590Z,100927.34
2023-03-21T10:44:16.410Z,100925.81
2023-03-21T10:47:47.970Z,100937.19
2023-03-21T10:50:58.928Z,100924.72
2023-03-21T10:54:04.165Z,100929.50
2023-03-21T10:57:42.895Z,100930.19
2023-03-21T11:01:00.596Z,100923.38
2023-03-21T11:03:52.414Z,100921.13
2023-03-21T11:08:30.360Z,100918.81
2023-03-21T11:10:28.659Z,100912.13
2023-03-21T11:13:43.988Z,100911.34
2023-03-21T11:16:44.655Z,100917.38
2023-03-21T11:19:41.014Z,100912.63
2023-03-21T11:28:38.899Z,100907.69
2023-03-21T11:31:57.839Z,100906.84
2023-03-21T11:39:40.433Z,100904.41
2023-03-21T11:42:33.203Z,100901.44
2023-03-21T11:45:11.071Z,100889.84
2023-03-21T11:47:38.976Z,100890.66
2023-03-21T11:50:38.939Z,100895.91
2023-03-21T11:53:08.430Z,100880.44
2023-03-21T11:55:53.496Z,100882.31
2023-03-21T11:58:29.290Z,100877.81
2023-03-21T12:01:33.431Z,100879.06
2023-03-21T12:04:18.575Z,100872.56
2023-03-21T12:06:59.381Z,100872.28
2023-03-21T12:09:43.497Z,100868.59
2023-03-21T12:12:36.502Z,100867.63
2023-03-21T12:15:16.501Z,100853.94
2023-03-21T12:18:08.941Z,100857.09
2023-03-21T12:20:41.196Z,100849.75
2023-03-21T12:23:23.390Z,100854.31
2023-03-21T12:25:59.225Z,100848.53
2023-03-21T12:28:44.210Z,100846.38
2023-03-21T12:31:29.903Z,100852.53
2023-03-21T12:34:04.790Z,100846.44
2023-03-21T12:36:48.189Z,100841.81
2023-03-21T12:39:26.946Z,100839.13
2023-03-21T12:42:24.445Z,100838.66
2023-03-21T12:44:59.515Z,100837.34
2023-03-21T12:47:29.182Z,100832.34
2023-03-21T12:50:12.771Z,100828.47
2023-03-21T12:52:43.363Z,100829.47
2023-03-21T12:55:25.739Z,100828.16
2023-03-21T12:58:04.320Z,100826.13
2023-03-21T13:00:48.387Z,100812.28
2023-03-21T13:03:40.361Z,100811.03
2023-03-21T13:06:10.947Z,100807.97
2023-03-21T13:08:37.561Z,100806.19
2023-03-21T13:11:06.759Z,100801.81
2023-03-21T13:14:01.668Z,100798.72
2023-03-21T13:16:34.058Z,100795.50
2023-03-21T13:19:19.955Z,100794.31
2023-03-21T13:22:07.983Z,100790.19
2023-03-21T13:24:48.585Z,100787.84
2023-03-21T13:27:24.798Z,100782.31
2023-03-21T13:29:58.462Z,100781.91
2023-03-21T13:32:31.961Z,100774.09
2023-03-21T13:35:13.608Z,100776.81
2023-03-21T13:37:51.853Z,100769.56
2023-03-21T13:40:43.512Z,100765.81
2023-03-21T13:43:42.415Z,100764.81
2023-03-21T13:46:14.575Z,100775.19
2023-03-21T13:48:59.442Z,100769.34
2023-03-21T13:51:29.580Z,100760.06
2023-03-21T13:54:21.784Z,100767.41
2023-03-21T13:56:51.499Z,100758.88
2023-03-21T13:59:36.529Z,100761.09
2023-03-21T14:02:12.057Z,100764.41
2023-03-21T14:04:43.210Z,100762.34
2023-03-21T14:07:27.559Z,100758.41
2023-03-21T14:10:04.403Z,100759.88
2023-03-21T14:12:40.008Z,100752.00
2023-03-21T14:15:16.713Z,100750.78
2023-03-21T14:18:28.175Z,100751.16
2023-03-21T14:21:02.294Z,100741.81
2023-03-21T14:23:30.381Z,100739.59
2023-03-21T14:25:57.200Z,100743.88
2023-03-21T14:28:33.068Z,100736.56
2023-03-21T14:31:01.135Z,100743.06
2023-03-21T14:33:41.489Z,100742.22
2023-03-21T14:36:15.776Z,100734.97
2023-03-21T14:38:42.546Z,100740.59
2023-03-21T14:41:22.180Z,100739.22
2023-03-21T14:44:03.809Z,100736.06
2023-03-21T14:46:30.420Z,100724.44
2023-03-21T14:49:11.239Z,100728.59
2023-03-21T14:51:38.479Z,100723.63
2023-03-21T14:54:06.198Z,100723.25
2023-03-21T14:56:39.599Z,100711.28
2023-03-21T14:59:06.674Z,100714.47
2023-03-21T15:01:35.029Z,100711.41
2023-03-21T15:04:06.389Z,100708.56
2023-03-21T15:06:35.629Z,100702.25
2023-03-21T15:09:04.517Z,100708.78
2023-03-21T15:11:34.211Z,100705.66
2023-03-21T15:14:04.968Z,100708.97
2023-03-21T15:16:32.332Z,100699.47
2023-03-21T15:19:00.058Z,100690.44
2023-03-21T15:21:35.231Z,100686.50
2023-03-21T15:24:27.158Z,100692.28
2023-03-21T15:27:00.712Z,100686.88
2023-03-21T15:29:28.093Z,100690.63
2023-03-21T15:31:54.992Z,100685.53
2023-03-21T15:34:24.793Z,100685.97
2023-03-21T15:36:57.186Z,100690.59
2023-03-21T15:39:24.588Z,100682.94
2023-03-21T15:42:06.537Z,100685.72
2023-03-21T15:44:35.465Z,100680.66
2023-03-21T15:47:02.422Z,100685.22
2023-03-21T15:49:34.644Z,100679.91
2023-03-21T15:52:14.195Z,100676.91
2023-03-21T15:54:50.293Z,100677.88
2023-03-21T15:57:24.632Z,100673.25
2023-03-21T15:59:56.663Z,100669.78
2023-03-21T16:02:29.196Z,100668.81
2023-03-21T16:05:02.943Z,100668.69
2023-03-21T16:07:34.078Z,100669.03
2023-03-21T16:10:04.653Z,100670.31
2023-03-21T16:12:31.400Z,100669.09
2023-03-21T16:14:58.060Z,100669.97
2023-03-21T16:17:39.668Z,100667.41
2023-03-21T16:20:22.324Z,100682.31
2023-03-21T16:22:49.090Z,100668.59
2023-03-21T16:25:16.268Z,100676.47
2023-03-21T16:27:43.509Z,100687.31
2023-03-21T16:30:13.691Z,100679.13
2023-03-21T16:32:40.396Z,100685.22
2023-03-21T16:35:08.520Z,100677.06
2023-03-21T16:37:35.408Z,100678.06
2023-03-21T16:40:02.279Z,100684.06
2023-03-21T16:42:29.040Z,100682.53
2023-03-21T16:44:55.794Z,100678.56
2023-03-21T16:47:25.800Z,100670.78
2023-03-21T16:49:52.595Z,100675.28
2023-03-21T16:52:19.214Z,100667.88
2023-03-21T16:54:46.148Z,100667.03
2023-03-21T16:57:27.656Z,100660.78
2023-03-21T16:59:55.817Z,100670.44
2023-03-21T17:02:24.876Z,100659.69
2023-03-21T17:04:51.599Z,100659.56
2023-03-21T17:07:18.403Z,100661.94
2023-03-21T17:09:45.073Z,100666.53
2023-03-21T17:12:15.826Z,100667.69
2023-03-21T17:14:43.699Z,100659.03
2023-03-21T17:17:15.567Z,100668.72
2023-03-21T17:19:42.718Z,100658.09
2023-03-21T17:22:11.915Z,100653.78
2023-03-21T17:24:39.974Z,100659.97
2023-03-21T17:27:11.582Z,100655.00
2023-03-21T17:29:38.292Z,100671.88
2023-03-21T17:32:05.189Z,100663.56
2023-03-21T17:34:32.378Z,100664.50
2023-03-21T17:36:59.033Z,100669.34
2023-03-21T17:39:28.552Z,100658.56
2023-03-21T17:41:56.866Z,100660.78
2023-03-21T17:44:23.607Z,100664.72
2023-03-21T17:46:51.951Z,100670.50
2023-03-21T17:49:19.933Z,100668.22
2023-03-21T17:51:47.027Z,100660.16
2023-03-21T17:54:14.141Z,100665.78
2023-03-21T17:56:42.007Z,100673.19
2023-03-21T17:59:13.004Z,100670.19
2023-03-21T18:01:40.221Z,100666.97
2023-03-21T18:04:07.239Z,100675.41
2023-03-21T18:06:34.957Z,100679.69
2023-03-21T18:09:06.921Z,100675.38
2023-03-21T18:11:34.076Z,100668.34
2023-03-21T18:14:15.031Z,100668.50
2023-03-21T18:16:42.713Z,100663.72
2023-03-21T18:19:11.059Z,100667.41
2023-03-21T18:21:40.536Z,100669.22
2023-03-21T18:24:07.525Z,100669.97
2023-03-21T18:26:34.275Z,100669.66
2023-03-21T18:32:04.323Z,100668.19
2023-03-21T18:34:32.072Z,100664.78
2023-03-21T18:36:58.709Z,100660.72
2023-03-21T18:39:25.753Z,100666.03
2023-03-21T18:41:57.833Z,100654.38
2023-03-21T18:44:25.693Z,100659.31
2023-03-21T18:46:52.677Z,100652.53
2023-03-21T18:52:07.850Z,100649.56
2023-03-21T18:54:36.511Z,100651.31
2023-03-21T18:59:51.910Z,100662.31
2023-03-21T19:02:18.712Z,100656.00
2023-03-21T19:04:45.604Z,100656.47
2023-03-21T19:07:12.399Z,100656.63
2023-03-21T19:10:01.411Z,100658.47
2023-03-21T19:12:27.234Z,100651.00
2023-03-21T19:14:54.524Z,100663.50
2023-03-21T19:20:09.854Z,100649.94
2023-03-21T19:22:36.807Z,100664.34
2023-03-21T19:25:05.704Z,100657.06
2023-03-21T19:27:36.096Z,100654.00
2023-03-21T19:30:14.256Z,100656.25
2023-03-21T19:32:41.989Z,100663.22
2023-03-21T19:35:09.351Z,100657.84
2023-03-21T19:37:36.446Z,100655.09
2023-03-21T19:40:05.774Z,100652.72
2023-03-21T19:42:33.026Z,100652.16
2023-03-21T19:44:59.651Z,100647.81
2023-03-21T19:47:26.359Z,100637.75
2023-03-21T19:52:40.798Z,100636.22
2023-03-21T19:55:08.142Z,100628.06
2023-03-21T19:57:35.281Z,100625.94
2023-03-21T20:00:02.529Z,100632.59
2023-03-21T20:02:36.501Z,100628.09
2023-03-21T20:05:05.092Z,100637.16
2023-03-21T20:07:33.040Z,100634.91
2023-03-21T20:10:00.320Z,100623.53
2023-03-21T20:12:27.572Z,100621.06
2023-03-21T20:15:17.258Z,100619.97
2023-03-21T20:17:43.523Z,100618.78
2023-03-21T20:20:13.950Z,100615.75
2023-03-21T20:25:28.382Z,100616.91
2023-03-21T20:28:12.794Z,100623.22
2023-03-21T20:30:46.612Z,100622.13
2023-03-21T20:33:13.732Z,100624.28
2023-03-21T20:40:06.355Z,100612.84
2023-03-21T20:42:44.755Z,100621.91
2023-03-21T20:45:45.627Z,100606.13
2023-03-21T20:48:49.844Z,100609.97
2023-03-21T20:58:02.109Z,100607.66
2023-03-21T21:00:40.896Z,100615.44
2023-03-21T21:03:57.738Z,100607.47
2023-03-21T21:10:00.517Z,100607.88
2023-03-21T21:32:55.890Z,100577.63
2023-03-21T21:35:29.143Z,100570.81
2023-03-21T21:38:15.545Z,100573.34
2023-03-21T21:41:32.266Z,100576.09
2023-03-21T21:44:11.096Z,100574.47
2023-03-21T21:47:00.224Z,100576.16
2023-03-21T22:04:33.669Z,100561.56
2023-03-21T22:16:58.435Z,100555.31
2023-03-21T22:20:13.228Z,100545.72
2023-03-21T22:22:59.011Z,100553.69
2023-03-21T22:28:48.784Z,100555.31
2023-03-21T22:34:43.807Z,100547.75
2023-03-21T22:37:23.951Z,100538.53
2023-03-21T22:39:51.297Z,100540.47
2023-03-21T22:42:24.257Z,100543.34
2023-03-21T22:45:18.410Z,100540.38
2023-03-21T22:48:23.235Z,100532.69
2023-03-21T22:50:55.865Z,100531.63
2023-03-21T22:53:25.893Z,100533.88
2023-03-21T22:56:02.938Z,100524.97
2023-03-21T22:58:44.317Z,100524.09
2023-03-21T23:01:24.345Z,100523.91
2023-03-21T23:11:25.853Z,100518.44
2023-03-21T23:21:08.893Z,100523.34
2023-03-21T23:23:54.745Z,100507.25
2023-03-21T23:27:10.929Z,100506.19
2023-03-21T23:29:59.360Z,100505.19
2023-03-21T23:32:56.970Z,100515.72
2023-03-21T23:36:02.081Z,100516.75
2023-03-21T23:38:51.915Z,100509.75
2023-03-21T23:41:38.571Z,100518.78
2023-03-21T23:44:19.576Z,100501.25
2023-03-21T23:46:51.689Z,100505.69
2023-03-21T23:49:35.766Z,100499.50
2023-03-21T23:52:04.643Z,100499.31
2023-03-21T23:54:38.862Z,100501.72
2023-03-21T23:57:34.802Z,100502.59
